Time;durP1;ratioP1;P1;durP2;ratioP2;P2;SDS_P1;SDS_P2;PMS_P1;PMS_P2;Temp;Humidity;BMP_temperature;BMP_pressure;BME280_temperature;BME280_humidity;BME280_pressure;Samples;Min_cycle;Max_cycle;Signal;HPM_P1;HPM_P2
2022/01/05 00:00:49;;;;;;;13.63;3.22;;;8.10;99.90;;;;;;5071328;28;20025;-59
2022/01/05 00:03:14;;;;;;;65.18;42.10;;;8.20;99.90;;;;;;5070763;28;20028;-60
2022/01/05 00:05:40;;;;;;;114.35;79.20;;;8.00;99.90;;;;;;5069005;28;20027;-59
2022/01/05 00:08:06;;;;;;;169.77;124.07;;;7.80;99.90;;;;;;5070991;28;20494;-60
2022/01/05 00:10:32;;;;;;;124.82;81.78;;;7.70;99.90;;;;;;5071329;28;20043;-59
2022/01/05 00:12:58;;;;;;;279.77;183.25;;;7.60;99.90;;;;;;5070179;28;20040;-59
2022/01/05 00:15:23;;;;;;;260.20;187.38;;;7.70;99.90;;;;;;5069145;28;20024;-59
2022/01/05 00:17:49;;;;;;;17.52;7.93;;;7.60;99.90;;;;;;5069315;28;20037;-59
2022/01/05 00:20:15;;;;;;;46.50;23.33;;;7.60;99.90;;;;;;5069133;28;20025;-59
2022/01/05 00:22:41;;;;;;;70.13;42.97;;;7.40;99.90;;;;;;5053608;28;20434;-59
2022/01/05 00:25:07;;;;;;;94.50;64.00;;;7.30;99.90;;;;;;5073192;28;20029;-59
2022/01/05 00:27:32;;;;;;;18.92;6.40;;;7.20;99.90;;;;;;5069521;28;20032;-59
2022/01/05 00:29:58;;;;;;;22.33;11.95;;;7.20;99.90;;;;;;5069141;28;20501;-59
2022/01/05 00:32:24;;;;;;;19.17;6.07;;;7.30;99.90;;;;;;5068783;28;20040;-60
2022/01/05 00:34:52;;;;;;;50.30;35.85;;;7.20;99.90;;;;;;5068850;28;20033;-59
2022/01/05 00:37:18;;;;;;;20.95;6.80;;;7.20;99.90;;;;;;5071952;28;20046;-59
2022/01/05 00:39:44;;;;;;;30.27;18.63;;;7.10;99.90;;;;;;5070924;28;20027;-59
2022/01/05 00:42:10;;;;;;;20.63;8.25;;;7.00;99.90;;;;;;5062676;28;20021;-59
2022/01/05 00:44:36;;;;;;;13.75;3.30;;;7.10;99.90;;;;;;5068526;28;20036;-59
2022/01/05 00:47:03;;;;;;;301.02;144.50;;;6.90;99.90;;;;;;5068379;28;20021;-59
2022/01/05 00:49:28;;;;;;;30.38;10.60;;;7.00;99.90;;;;;;5070486;28;20035;-59
2022/01/05 00:51:54;;;;;;;32.17;21.50;;;6.90;99.90;;;;;;5070690;28;20033;-59
2022/01/05 00:54:20;;;;;;;30.73;16.77;;;6.90;99.90;;;;;;5068593;28;20112;-58
2022/01/05 00:56:46;;;;;;;20.48;5.68;;;6.80;99.90;;;;;;5068640;28;20074;-60
2022/01/05 00:59:11;;;;;;;64.32;38.63;;;6.60;99.90;;;;;;5068838;28;20032;-59
2022/01/05 01:01:37;;;;;;;57.13;32.85;;;6.60;99.90;;;;;;5069402;28;20480;-59
2022/01/05 01:04:04;;;;;;;63.38;36.00;;;6.50;99.90;;;;;;5071450;28;20082;-60
2022/01/05 01:06:30;;;;;;;49.20;25.92;;;6.60;99.90;;;;;;5067837;28;20115;-59
2022/01/05 01:08:56;;;;;;;134.20;72.40;;;6.70;99.90;;;;;;5068549;28;20459;-59
2022/01/05 01:11:22;;;;;;;303.30;144.65;;;6.40;99.90;;;;;;5067687;28;20149;-59
2022/01/05 01:13:48;;;;;;;168.77;84.93;;;6.20;99.90;;;;;;5068509;28;20068;-59
2022/01/05 01:16:14;;;;;;;474.00;246.73;;;6.20;99.90;;;;;;5071626;28;20387;-60
2022/01/05 01:18:39;;;;;;;59.78;37.60;;;6.40;99.90;;;;;;5068910;28;20029;-59
2022/01/05 01:21:05;;;;;;;29.38;14.60;;;6.50;99.90;;;;;;5069312;28;20020;-60
2022/01/05 01:23:31;;;;;;;14.07;4.40;;;6.50;99.90;;;;;;5067715;28;20035;-59
2022/01/05 01:25:57;;;;;;;13.23;9.05;;;6.60;99.90;;;;;;5069468;28;20032;-60
2022/01/05 01:28:24;;;;;;;16.05;5.80;;;6.60;99.90;;;;;;5071093;28;20024;-59
2022/01/05 01:30:50;;;;;;;15.82;2.88;;;6.60;99.90;;;;;;5071532;28;20398;-60
2022/01/05 01:33:16;;;;;;;12.77;2.85;;;6.70;99.90;;;;;;5067452;28;20055;-59
2022/01/05 01:35:42;;;;;;;13.05;2.88;;;6.90;99.90;;;;;;5068198;28;20029;-60
2022/01/05 01:38:08;;;;;;;12.82;2.97;;;7.00;99.90;;;;;;5067934;28;20036;-59
2022/01/05 01:40:34;;;;;;;11.50;3.10;;;6.90;99.90;;;;;;5069726;28;20036;-60
2022/01/05 01:42:59;;;;;;;15.13;2.97;;;7.10;99.90;;;;;;5056360;28;20036;-60
2022/01/05 01:45:26;;;;;;;16.55;3.60;;;7.10;99.90;;;;;;5066361;28;20474;-59
2022/01/05 01:47:51;;;;;;;14.20;3.58;;;7.10;99.90;;;;;;5069624;28;20501;-59
2022/01/05 01:50:17;;;;;;;11.85;2.35;;;7.00;99.90;;;;;;5068142;28;20031;-59
2022/01/05 01:52:43;;;;;;;11.82;3.50;;;7.10;99.90;;;;;;5068072;28;20028;-60
2022/01/05 01:55:11;;;;;;;16.65;3.03;;;7.20;99.90;;;;;;5068033;28;20411;-59
2022/01/05 01:57:41;;;;;;;13.23;3.05;;;7.20;99.90;;;;;;5067806;28;20107;-59
2022/01/05 02:00:07;;;;;;;15.48;3.78;;;7.20;99.90;;;;;;5069115;28;20032;-59
2022/01/05 02:02:33;;;;;;;17.67;3.10;;;7.10;99.90;;;;;;5067137;28;20107;-59
2022/01/05 02:04:59;;;;;;;13.60;4.13;;;7.20;99.90;;;;;;5066758;28;20037;-59
2022/01/05 02:07:26;;;;;;;20.45;9.80;;;7.10;99.90;;;;;;5070015;28;20024;-59
2022/01/05 02:09:52;;;;;;;14.05;3.40;;;7.10;99.90;;;;;;5069132;28;20033;-60
2022/01/05 02:12:17;;;;;;;11.98;3.78;;;7.00;99.90;;;;;;5067208;28;20036;-59
2022/01/05 02:14:43;;;;;;;15.30;6.80;;;7.10;99.90;;;;;;5067911;28;20486;-59
2022/01/05 02:17:19;;;;;;;8.32;3.70;;;6.80;99.90;;;;;;5067061;28;20024;-59
2022/01/05 02:19:45;;;;;;;13.70;3.97;;;6.70;99.90;;;;;;5052225;28;20039;-59
2022/01/05 02:22:10;;;;;;;11.80;2.60;;;6.90;99.90;;;;;;5072005;28;20445;-59
2022/01/05 02:24:36;;;;;;;9.35;3.00;;;6.90;99.90;;;;;;5067152;28;20074;-59
2022/01/05 02:27:02;;;;;;;12.38;2.72;;;6.80;99.90;;;;;;5067207;28;20024;-59
2022/01/05 02:29:28;;;;;;;9.00;2.60;;;6.50;99.90;;;;;;5069921;28;20479;-60
2022/01/05 02:31:55;;;;;;;8.60;2.55;;;6.50;99.90;;;;;;5070160;28;20518;-60
2022/01/05 02:34:21;;;;;;;10.20;2.85;;;6.50;99.90;;;;;;5074351;28;20029;-59
2022/01/05 02:36:47;;;;;;;12.05;3.20;;;6.40;99.90;;;;;;5073034;28;20559;-58
2022/01/05 02:39:12;;;;;;;11.43;2.88;;;6.40;99.90;;;;;;5071393;28;20368;-60
2022/01/05 02:41:38;;;;;;;7.35;1.92;;;6.50;99.90;;;;;;5070749;28;20472;-59
2022/01/05 02:44:04;;;;;;;12.90;2.75;;;6.30;99.90;;;;;;5071349;28;20074;-59
2022/01/05 02:46:31;;;;;;;10.00;2.20;;;6.20;99.90;;;;;;5073181;28;20502;-59
2022/01/05 02:48:58;;;;;;;6.68;2.10;;;6.00;99.90;;;;;;5073661;28;20036;-59
2022/01/05 02:51:24;;;;;;;9.93;2.15;;;5.90;99.90;;;;;;5070799;28;20114;-59
2022/01/05 02:53:49;;;;;;;8.85;2.55;;;5.80;99.90;;;;;;5071030;28;20067;-59
2022/01/05 02:56:15;;;;;;;11.00;2.97;;;5.60;99.90;;;;;;5070844;28;20025;-59
2022/01/05 02:58:41;;;;;;;7.97;2.53;;;5.50;99.90;;;;;;5071443;28;20525;-59
2022/01/05 03:01:07;;;;;;;11.80;3.03;;;5.50;99.90;;;;;;5074249;28;20387;-59
2022/01/05 03:03:33;;;;;;;12.77;3.78;;;5.30;99.90;;;;;;5069562;28;20033;-59
2022/01/05 03:05:59;;;;;;;10.23;3.13;;;5.20;99.90;;;;;;5071083;28;20020;-59
2022/01/05 03:08:24;;;;;;;11.35;3.50;;;5.10;99.90;;;;;;5070601;28;20041;-59
2022/01/05 03:10:50;;;;;;;18.88;4.28;;;4.90;99.90;;;;;;5070818;28;20025;-59
2022/01/05 03:13:16;;;;;;;13.15;4.68;;;4.70;99.90;;;;;;5073942;28;20068;-59
2022/01/05 03:15:42;;;;;;;10.00;3.78;;;4.80;99.90;;;;;;5071340;28;20028;-59
2022/01/05 03:18:08;;;;;;;10.48;3.03;;;4.80;99.90;;;;;;5070645;28;20124;-59
2022/01/05 03:20:34;;;;;;;14.88;2.97;;;4.50;99.90;;;;;;5070942;28;20036;-59
2022/01/05 03:23:03;;;;;;;10.30;3.35;;;4.30;99.90;;;;;;5071600;28;20068;-59
2022/01/05 03:25:29;;;;;;;10.10;3.42;;;4.40;99.90;;;;;;5072448;28;20040;-59
2022/01/05 03:27:55;;;;;;;11.00;4.00;;;4.40;99.90;;;;;;5072929;28;20028;-59
2022/01/05 03:30:23;;;;;;;8.00;3.08;;;4.30;99.90;;;;;;5070019;28;20104;-59
2022/01/05 03:35:28;;;;;;;18.60;5.82;;;4.30;99.90;;;;;;5070051;28;20383;-59
2022/01/05 03:37:54;;;;;;;16.95;4.50;;;4.30;99.90;;;;;;5070398;28;20075;-59
2022/01/05 03:40:21;;;;;;;14.25;3.97;;;4.10;99.90;;;;;;5073086;28;20052;-60
2022/01/05 03:42:47;;;;;;;13.35;4.30;;;4.00;99.90;;;;;;5070925;28;20090;-60
2022/01/05 03:45:12;;;;;;;13.85;4.10;;;4.10;99.90;;;;;;5070080;28;20020;-59
2022/01/05 03:47:38;;;;;;;14.02;3.83;;;4.10;99.90;;;;;;5070056;28;20556;-59
2022/01/05 03:50:04;;;;;;;12.48;3.55;;;4.30;99.90;;;;;;5069783;28;20021;-59
2022/01/05 03:52:30;;;;;;;8.70;3.15;;;4.30;99.90;;;;;;5072190;28;20047;-60
2022/01/05 03:54:56;;;;;;;12.43;3.10;;;4.30;99.90;;;;;;5072066;28;20028;-59
2022/01/05 03:57:21;;;;;;;13.68;2.90;;;4.20;99.90;;;;;;5069570;28;20028;-60
2022/01/05 03:59:47;;;;;;;10.07;3.05;;;4.10;99.90;;;;;;5069840;28;20552;-59
2022/01/05 04:02:13;;;;;;;7.97;2.55;;;4.10;99.90;;;;;;5071178;28;20020;-59
2022/01/05 04:04:38;;;;;;;6.90;2.45;;;4.20;99.90;;;;;;5069197;28;20036;-59
2022/01/05 04:07:04;;;;;;;12.90;2.30;;;4.30;99.90;;;;;;5073367;28;20052;-59
2022/01/05 04:09:30;;;;;;;8.90;2.25;;;4.30;99.90;;;;;;5069585;28;20103;-58
2022/01/05 04:11:56;;;;;;;12.27;2.47;;;4.40;99.90;;;;;;5070387;28;20039;-60
2022/01/05 04:14:21;;;;;;;11.23;2.80;;;4.40;99.90;;;;;;5069475;28;20031;-60
2022/01/05 04:16:47;;;;;;;8.30;2.17;;;4.40;99.90;;;;;;5069465;28;20024;-59
2022/01/05 04:19:13;;;;;;;13.52;2.40;;;4.40;99.90;;;;;;5073159;28;20356;-59
2022/01/05 04:21:39;;;;;;;12.02;2.30;;;4.40;99.90;;;;;;5069707;28;20090;-59
2022/01/05 04:24:05;;;;;;;12.25;3.10;;;4.40;99.90;;;;;;5069197;28;20028;-59
2022/01/05 04:26:30;;;;;;;12.82;2.75;;;4.40;99.90;;;;;;5068589;28;20548;-59
2022/01/05 04:28:56;;;;;;;9.60;2.25;;;4.40;99.90;;;;;;5069750;28;20033;-59
2022/01/05 04:31:22;;;;;;;12.07;2.22;;;4.40;99.90;;;;;;5072054;28;20554;-59
2022/01/05 04:33:47;;;;;;;10.68;2.78;;;4.30;99.90;;;;;;5069841;28;20052;-59
2022/01/05 04:36:13;;;;;;;13.20;2.70;;;4.20;99.90;;;;;;5069158;28;20020;-59
2022/01/05 04:38:39;;;;;;;12.30;2.97;;;4.20;99.90;;;;;;5066241;28;20031;-59
2022/01/05 04:41:04;;;;;;;11.32;2.58;;;4.20;99.90;;;;;;5070350;28;20430;-59
2022/01/05 04:43:30;;;;;;;13.93;2.60;;;4.10;99.90;;;;;;5071180;28;20027;-59
2022/01/05 04:45:56;;;;;;;12.88;2.70;;;3.90;99.90;;;;;;5070991;28;20024;-59
2022/01/05 04:48:22;;;;;;;11.35;2.55;;;3.90;99.90;;;;;;5068907;28;20391;-59
2022/01/05 04:50:48;;;;;;;17.15;2.60;;;3.80;99.90;;;;;;5070452;28;20475;-59
2022/01/05 04:53:14;;;;;;;11.40;3.20;;;4.00;99.90;;;;;;5070260;28;20089;-59
2022/01/05 04:55:41;;;;;;;9.35;2.45;;;4.10;99.90;;;;;;5068638;28;20151;-59
2022/01/05 04:58:06;;;;;;;11.82;3.00;;;4.30;99.90;;;;;;5072259;28;20020;-59
2022/01/05 05:00:32;;;;;;;11.43;3.33;;;4.30;99.90;;;;;;5068947;28;20028;-59
2022/01/05 05:02:58;;;;;;;11.85;3.72;;;4.40;99.90;;;;;;5068492;28;20059;-59
2022/01/05 05:05:23;;;;;;;10.93;3.20;;;4.40;99.90;;;;;;5068307;28;20031;-60
2022/01/05 05:07:49;;;;;;;12.15;3.38;;;4.30;99.90;;;;;;5068571;28;20098;-59
2022/01/05 05:10:15;;;;;;;12.82;3.83;;;4.20;99.90;;;;;;5071563;28;20103;-59
2022/01/05 05:12:40;;;;;;;16.83;4.18;;;4.00;99.90;;;;;;5069038;28;20033;-60
2022/01/05 05:15:07;;;;;;;12.85;4.15;;;4.00;99.90;;;;;;5068527;28;20027;-59
2022/01/05 05:17:33;;;;;;;18.17;5.00;;;4.00;99.90;;;;;;5065915;28;20046;-59
2022/01/05 05:19:58;;;;;;;13.10;4.35;;;4.00;99.90;;;;;;5055976;28;20099;-60
2022/01/05 05:22:24;;;;;;;12.15;4.65;;;4.10;99.90;;;;;;5070495;28;20076;-59
2022/01/05 05:24:50;;;;;;;31.90;12.50;;;4.10;99.90;;;;;;5069449;28;20471;-59
2022/01/05 05:27:16;;;;;;;23.95;10.35;;;4.20;99.90;;;;;;5068361;28;20055;-60
2022/01/05 05:29:42;;;;;;;23.58;10.02;;;4.10;99.90;;;;;;5069896;28;20028;-60
2022/01/05 05:32:08;;;;;;;14.57;6.53;;;4.10;99.90;;;;;;5067624;28;20451;-59
2022/01/05 05:34:33;;;;;;;12.50;5.60;;;4.10;99.90;;;;;;5069866;28;20028;-60
2022/01/05 05:36:59;;;;;;;15.25;5.65;;;4.10;99.90;;;;;;5070535;28;20489;-60
2022/01/05 05:39:25;;;;;;;11.45;4.82;;;4.20;99.90;;;;;;5067058;28;20099;-59
2022/01/05 05:41:50;;;;;;;16.58;5.00;;;4.20;99.90;;;;;;5067632;28;20394;-59
2022/01/05 05:44:16;;;;;;;20.38;6.60;;;4.20;99.90;;;;;;5068015;28;20074;-60
2022/01/05 05:46:42;;;;;;;17.55;8.00;;;4.30;99.90;;;;;;5068630;28;20028;-60
2022/01/05 05:49:08;;;;;;;21.13;8.15;;;4.30;99.90;;;;;;5071062;28;20028;-59
2022/01/05 05:51:33;;;;;;;19.80;9.13;;;4.30;99.90;;;;;;5067728;28;20040;-60
2022/01/05 05:53:59;;;;;;;21.35;9.55;;;4.30;99.90;;;;;;5067527;28;20484;-60
2022/01/05 05:56:25;;;;;;;18.35;5.88;;;4.40;99.90;;;;;;5068005;28;20024;-59
2022/01/05 05:58:51;;;;;;;16.13;4.68;;;4.40;99.90;;;;;;5069334;28;20012;-59
2022/01/05 06:01:17;;;;;;;13.40;4.20;;;4.60;99.90;;;;;;5070929;28;20532;-60
2022/01/05 06:03:43;;;;;;;9.75;3.53;;;4.50;99.90;;;;;;5068650;28;20504;-59
2022/01/05 06:06:09;;;;;;;11.15;4.20;;;4.60;99.90;;;;;;5067370;28;20102;-60
2022/01/05 06:08:35;;;;;;;12.68;4.15;;;4.50;99.90;;;;;;5067555;28;20402;-60
2022/01/05 06:11:00;;;;;;;12.05;4.55;;;4.50;99.90;;;;;;5067445;28;20033;-60
2022/01/05 06:13:26;;;;;;;15.15;5.00;;;4.40;99.90;;;;;;5068579;28;20114;-60
2022/01/05 06:15:52;;;;;;;15.75;6.00;;;4.50;99.90;;;;;;5068953;28;20056;-59
2022/01/05 06:18:17;;;;;;;17.50;6.10;;;4.60;99.90;;;;;;5067653;28;20511;-59
2022/01/05 06:20:43;;;;;;;13.45;4.90;;;4.60;99.90;;;;;;5067474;28;20029;-60
2022/01/05 06:23:09;;;;;;;11.43;3.67;;;4.60;99.90;;;;;;5067447;28;20387;-59
2022/01/05 06:25:34;;;;;;;10.80;4.70;;;4.70;99.90;;;;;;5069912;28;20528;-59
2022/01/05 06:28:00;;;;;;;15.02;4.55;;;4.70;99.90;;;;;;5070348;28;20027;-59
2022/01/05 06:30:26;;;;;;;14.60;4.85;;;4.70;99.90;;;;;;5067458;28;20024;-60
2022/01/05 06:32:52;;;;;;;11.43;3.90;;;4.60;99.90;;;;;;5067854;28;20122;-59
2022/01/05 06:35:23;;;;;;;12.32;4.25;;;4.60;99.90;;;;;;5067989;28;20048;-60
2022/01/05 06:37:50;;;;;;;12.55;4.63;;;4.50;99.90;;;;;;5064899;28;20083;-59
2022/01/05 06:40:16;;;;;;;18.10;5.78;;;4.50;99.90;;;;;;5071490;28;20126;-59
2022/01/05 06:42:41;;;;;;;12.50;4.78;;;4.50;99.90;;;;;;5068598;28;20039;-59
2022/01/05 06:45:08;;;;;;;22.25;10.02;;;4.60;99.90;;;;;;5063861;28;20028;-59
2022/01/05 06:47:33;;;;;;;11.65;5.50;;;4.70;99.90;;;;;;5068435;28;20104;-59
2022/01/05 06:49:59;;;;;;;12.48;4.65;;;4.90;99.90;;;;;;5066740;28;20108;-59
2022/01/05 06:52:25;;;;;;;11.98;4.93;;;4.90;99.90;;;;;;5069502;28;20033;-59
2022/01/05 06:54:51;;;;;;;11.30;5.25;;;4.80;99.90;;;;;;5068827;28;20100;-60
2022/01/05 06:57:17;;;;;;;17.42;5.75;;;4.60;99.90;;;;;;5066432;28;20107;-60
2022/01/05 06:59:43;;;;;;;14.95;5.18;;;4.60;99.90;;;;;;5067390;28;20107;-59
2022/01/05 07:02:08;;;;;;;14.07;5.40;;;4.80;99.90;;;;;;5066964;28;20044;-59
2022/01/05 07:04:34;;;;;;;14.82;5.63;;;4.90;99.90;;;;;;5068648;28;20035;-59
2022/01/05 07:07:00;;;;;;;12.73;4.93;;;4.90;99.90;;;;;;5069206;28;20103;-59
2022/01/05 07:09:26;;;;;;;16.55;5.40;;;4.90;99.90;;;;;;5067177;28;20020;-59
2022/01/05 07:11:51;;;;;;;14.00;4.97;;;4.60;99.90;;;;;;5065330;28;20028;-58
2022/01/05 07:14:17;;;;;;;16.27;5.38;;;4.60;99.90;;;;;;5067534;28;20020;-59
2022/01/05 07:16:43;;;;;;;14.55;4.90;;;4.50;99.90;;;;;;5052515;28;20056;-60
2022/01/05 07:19:08;;;;;;;21.40;10.18;;;4.60;99.90;;;;;;5073919;28;20099;-60
2022/01/05 07:21:35;;;;;;;19.48;7.07;;;4.60;99.90;;;;;;5070534;28;20041;-58
2022/01/05 07:24:02;;;;;;;17.00;7.07;;;4.60;99.90;;;;;;5071180;28;20066;-59
2022/01/05 07:26:28;;;;;;;21.17;7.25;;;4.60;99.90;;;;;;5072296;28;20052;-59
2022/01/05 07:28:54;;;;;;;14.50;9.48;;;4.70;99.90;;;;;;5071068;28;20089;-59
2022/01/05 07:31:20;;;;;;;19.25;11.05;;;4.80;99.90;;;;;;5073241;28;20479;-60
2022/01/05 07:33:46;;;;;;;23.23;14.57;;;4.80;99.90;;;;;;5071547;28;20043;-60
2022/01/05 07:36:12;;;;;;;21.45;12.82;;;4.90;99.90;;;;;;5070695;28;20410;-60
2022/01/05 07:38:38;;;;;;;17.92;11.15;;;4.90;99.90;;;;;;5070663;28;20549;-59
2022/01/05 07:41:04;;;;;;;23.33;11.57;;;4.90;99.90;;;;;;5070245;28;20103;-60
2022/01/05 07:43:29;;;;;;;20.42;12.70;;;4.80;99.90;;;;;;5072987;28;20032;-59
2022/01/05 07:45:55;;;;;;;20.70;11.95;;;4.80;99.90;;;;;;5072172;28;20103;-59
2022/01/05 07:48:21;;;;;;;23.33;13.38;;;4.80;99.90;;;;;;5071924;28;20608;-59
2022/01/05 07:50:47;;;;;;;26.70;14.75;;;4.70;99.90;;;;;;5071288;28;20548;-59
2022/01/05 07:53:13;;;;;;;22.15;12.20;;;4.80;99.90;;;;;;5071436;28;20033;-60
2022/01/05 07:55:38;;;;;;;18.50;8.75;;;4.90;99.90;;;;;;5072319;28;20060;-60
2022/01/05 07:58:04;;;;;;;21.42;9.60;;;5.10;99.90;;;;;;5074843;28;20040;-59
2022/01/05 08:00:30;;;;;;;17.25;7.30;;;4.90;99.90;;;;;;5070506;28;20486;-59
2022/01/05 08:02:55;;;;;;;17.70;8.23;;;4.90;99.90;;;;;;5071179;28;20025;-59
2022/01/05 08:05:21;;;;;;;17.88;8.27;;;4.80;99.90;;;;;;5070770;28;20460;-59
2022/01/05 08:07:48;;;;;;;17.80;10.75;;;4.80;99.90;;;;;;5069448;28;20036;-59
2022/01/05 08:10:14;;;;;;;16.67;8.07;;;5.10;99.90;;;;;;5073302;28;20073;-60
2022/01/05 08:12:41;;;;;;;18.90;8.27;;;5.20;99.90;;;;;;5059728;28;20496;-59
2022/01/05 08:15:11;;;;;;;17.60;11.05;;;5.30;99.90;;;;;;5066225;28;20028;-58
2022/01/05 08:17:38;;;;;;;19.42;9.85;;;5.30;99.90;;;;;;5069935;28;20028;-60
2022/01/05 08:20:06;;;;;;;21.38;11.60;;;5.50;99.90;;;;;;5068830;28;20025;-60
2022/01/05 08:22:32;;;;;;;20.08;11.52;;;5.30;99.90;;;;;;5070292;28;20039;-60
2022/01/05 08:24:58;;;;;;;19.88;11.57;;;5.10;99.90;;;;;;5073486;28;20070;-59
2022/01/05 08:27:23;;;;;;;20.50;11.13;;;5.10;99.90;;;;;;5069030;28;20602;-60
2022/01/05 08:29:49;;;;;;;20.40;10.90;;;5.20;99.90;;;;;;5067873;28;20024;-58
2022/01/05 08:32:15;;;;;;;21.13;12.65;;;5.20;99.90;;;;;;5069240;28;20053;-57
2022/01/05 08:34:41;;;;;;;22.45;14.27;;;5.30;99.90;;;;;;5063622;28;20027;-58
2022/01/05 08:37:06;;;;;;;19.95;8.38;;;5.30;99.90;;;;;;5072063;28;20581;-58
2022/01/05 08:39:32;;;;;;;18.60;8.20;;;5.50;99.90;;;;;;5068958;28;20070;-58
2022/01/05 08:41:58;;;;;;;246.52;176.30;;;5.50;99.90;;;;;;5072127;28;20024;-58
2022/01/05 08:44:24;;;;;;;320.20;212.48;;;5.30;99.90;;;;;;5068501;28;20506;-57
2022/01/05 08:46:49;;;;;;;363.75;225.55;;;5.30;99.90;;;;;;5069576;28;20035;-58
2022/01/05 08:49:15;;;;;;;203.95;121.25;;;5.50;99.90;;;;;;5070849;28;20039;-60
2022/01/05 08:51:41;;;;;;;27.17;14.82;;;5.60;99.90;;;;;;5068144;28;20054;-57
2022/01/05 08:54:07;;;;;;;167.48;111.78;;;5.50;99.90;;;;;;5069353;28;20028;-59
2022/01/05 08:56:33;;;;;;;136.80;95.47;;;5.40;99.90;;;;;;5067495;28;20090;-57
2022/01/05 08:58:59;;;;;;;27.67;16.75;;;5.50;99.90;;;;;;5068464;28;20021;-58
2022/01/05 09:01:25;;;;;;;204.30;151.18;;;5.60;99.90;;;;;;5069187;28;20036;-58
2022/01/05 09:03:52;;;;;;;34.63;21.52;;;5.50;99.90;;;;;;5069083;28;20024;-58
2022/01/05 09:06:22;;;;;;;21.67;13.20;;;5.50;99.90;;;;;;5067524;28;20028;-59
2022/01/05 09:08:48;;;;;;;14.38;7.25;;;5.60;99.90;;;;;;5068649;28;20059;-57
2022/01/05 09:11:15;;;;;;;14.20;6.72;;;6.10;99.90;;;;;;5068631;28;20063;-58
2022/01/05 09:13:41;;;;;;;33.92;20.00;;;6.00;99.90;;;;;;5068156;28;20045;-57
2022/01/05 09:16:07;;;;;;;16.20;5.47;;;5.90;99.90;;;;;;5071071;28;20043;-58
2022/01/05 09:18:33;;;;;;;13.43;5.50;;;5.80;99.90;;;;;;5067326;28;20036;-58
2022/01/05 09:20:59;;;;;;;13.63;5.55;;;5.90;99.90;;;;;;5067758;28;20574;-58
2022/01/05 09:23:25;;;;;;;19.08;6.50;;;6.00;99.90;;;;;;5067077;28;20112;-59
2022/01/05 09:25:51;;;;;;;220.80;164.23;;;6.00;99.90;;;;;;5068733;28;20402;-59
2022/01/05 09:28:17;;;;;;;17.95;10.05;;;6.00;99.90;;;;;;5071007;28;20052;-59
2022/01/05 09:30:45;;;;;;;14.38;3.92;;;6.00;99.90;;;;;;5067887;28;20028;-58
2022/01/05 09:33:15;;;;;;;9.88;4.28;;;6.00;99.90;;;;;;5067292;28;20053;-59
2022/01/05 09:35:41;;;;;;;15.35;4.32;;;5.80;99.90;;;;;;5067927;28;20103;-58
2022/01/05 09:38:20;;;;;;;12.20;4.35;;;5.80;99.90;;;;;;5067671;28;20036;-58
2022/01/05 09:43:46;;;;;;;10.90;4.20;;;6.00;99.90;;;;;;5067742;28;20449;-58
2022/01/05 09:46:20;;;;;;;12.38;4.57;;;6.20;99.90;;;;;;5067142;28;20114;-58
2022/01/05 09:49:04;;;;;;;;;;;6.20;99.90;;;;;;5071048;28;20024;-56
2022/01/05 09:51:35;;;;;;;9.35;4.53;;;6.40;99.90;;;;;;5069903;28;19923;-58
2022/01/05 09:54:02;;;;;;;14.07;4.30;;;6.50;99.90;;;;;;5069437;28;20456;-58
2022/01/05 09:56:31;;;;;;;13.50;4.15;;;6.60;99.90;;;;;;5067886;28;20534;-58
2022/01/05 09:59:01;;;;;;;8.23;3.80;;;6.90;99.90;;;;;;5069634;28;20032;-59
2022/01/05 10:01:32;;;;;;;10.30;4.60;;;7.20;99.90;;;;;;5069854;28;20391;-58
2022/01/05 10:04:01;;;;;;;10.75;4.50;;;7.30;99.90;;;;;;5069343;28;20025;-59
2022/01/05 10:06:27;;;;;;;9.90;4.25;;;7.70;99.90;;;;;;5068085;28;20070;-58
2022/01/05 10:08:53;;;;;;;11.48;3.80;;;7.90;99.90;;;;;;5066853;28;20029;-59
2022/01/05 10:11:23;;;;;;;16.05;4.15;;;7.90;99.90;;;;;;5067004;28;20027;-58
2022/01/05 10:13:50;;;;;;;9.70;3.88;;;7.80;99.90;;;;;;5052868;28;20072;-59
2022/01/05 10:16:16;;;;;;;9.65;3.53;;;7.80;99.90;;;;;;5070450;28;20509;-59
2022/01/05 10:18:44;;;;;;;9.00;3.45;;;7.60;99.90;;;;;;5069451;28;20032;-59
2022/01/05 10:21:12;;;;;;;8.57;3.97;;;7.60;99.90;;;;;;5066809;28;20021;-58
2022/01/05 10:23:38;;;;;;;8.40;3.50;;;7.70;99.90;;;;;;5066257;28;20029;-59
2022/01/05 10:26:29;;;;;;;9.63;3.28;;;7.80;99.90;;;;;;5066227;28;20075;-59
2022/01/05 10:29:05;;;;;;;9.48;3.65;;;7.90;99.90;;;;;;5051890;28;20025;-59
2022/01/05 10:31:34;;;;;;;7.40;3.55;;;8.10;99.90;;;;;;5068936;28;20036;-58
2022/01/05 10:34:13;;;;;;;8.65;3.67;;;8.00;99.90;;;;;;5069109;28;20514;-60
2022/01/05 10:36:57;;;;;;;7.85;3.53;;;8.10;99.90;;;;;;5065096;28;20031;-59
2022/01/05 10:39:35;;;;;;;10.95;4.22;;;8.20;99.90;;;;;;5068211;28;20032;-59
2022/01/05 10:42:09;;;;;;;7.15;3.13;;;8.50;99.90;;;;;;5066457;28;20035;-58
2022/01/05 10:44:34;;;;;;;;;;;9.20;99.90;;;;;;5067765;28;20474;-58
2022/01/05 10:47:01;;;;;;;6.90;3.60;;;10.60;99.90;;;;;;5066136;28;19999;-60
2022/01/05 10:49:38;;;;;;;7.28;3.65;;;10.70;99.90;;;;;;5068363;28;20398;-58
2022/01/05 10:52:21;;;;;;;9.10;3.90;;;10.90;99.90;;;;;;5069760;28;20037;-59
2022/01/05 10:54:47;;;;;;;7.03;3.42;;;11.50;99.90;;;;;;5068791;28;20056;-57
2022/01/05 10:57:13;;;;;;;7.60;2.88;;;11.50;99.90;;;;;;5068251;28;20039;-60
2022/01/05 10:59:42;;;;;;;8.38;3.10;;;11.40;99.90;;;;;;5068535;28;20028;-60
2022/01/05 11:02:21;;;;;;;7.45;2.80;;;12.00;99.90;;;;;;5071137;28;20486;-60
2022/01/05 11:04:47;;;;;;;7.25;2.92;;;13.30;99.90;;;;;;5055240;28;20021;-59
2022/01/05 11:07:22;;;;;;;10.35;3.75;;;14.20;99.90;;;;;;5074504;28;20494;-59
2022/01/05 11:09:57;;;;;;;8.23;2.92;;;14.40;99.90;;;;;;5071555;28;20020;-59
2022/01/05 11:12:37;;;;;;;8.05;2.45;;;13.50;99.90;;;;;;5068868;28;20048;-60
2022/01/05 11:15:21;;;;;;;10.40;3.13;;;12.40;99.90;;;;;;5069781;28;20036;-60
2022/01/05 11:18:11;;;;;;;9.35;4.65;;;12.50;99.90;;;;;;5071548;28;20029;-60
2022/01/05 11:20:43;;;;;;;17.35;6.20;;;11.20;99.90;;;;;;5069699;28;20027;-60
2022/01/05 11:23:10;;;;;;;14.23;4.53;;;12.50;99.90;;;;;;5069551;28;20024;-60
2022/01/05 11:25:37;;;;;;;10.73;3.55;;;12.20;99.90;;;;;;5070537;28;20029;-59
2022/01/05 11:28:07;;;;;;;12.38;5.28;;;11.50;99.90;;;;;;5073560;28;20052;-59
2022/01/05 11:30:34;;;;;;;21.38;13.02;;;13.50;99.90;;;;;;5069194;28;20101;-61
2022/01/05 11:33:00;;;;;;;17.88;11.60;;;14.50;99.90;;;;;;5069323;28;20056;-59
2022/01/05 11:35:26;;;;;;;14.65;7.20;;;14.70;99.90;;;;;;5070806;28;20383;-60
2022/01/05 11:37:51;;;;;;;11.48;3.20;;;13.50;99.90;;;;;;5068775;28;20417;-60
2022/01/05 11:40:18;;;;;;;11.90;3.97;;;11.20;99.90;;;;;;5072667;28;20463;-60
2022/01/05 11:42:48;;;;;;;11.35;3.88;;;11.00;99.90;;;;;;5069889;28;20037;-60
2022/01/05 11:45:33;;;;;;;12.85;5.25;;;10.80;99.90;;;;;;5069123;28;20028;-60
2022/01/05 11:48:40;;;;;;;10.05;3.00;;;12.30;99.90;;;;;;5070672;28;20096;-60
2022/01/05 11:51:06;;;;;;;10.18;2.92;;;12.40;99.90;;;;;;5047079;28;20044;-60
2022/01/05 11:53:38;;;;;;;12.02;3.10;;;13.70;99.90;;;;;;5048323;28;20057;-59
2022/01/05 11:56:09;;;;;;;9.82;3.65;;;14.00;99.90;;;;;;5046513;28;20099;-60
2022/01/05 11:58:49;;;;;;;12.73;3.33;;;14.70;99.90;;;;;;5047940;28;20159;-60
2022/01/05 12:01:17;;;;;;;13.93;5.03;;;14.10;99.90;;;;;;5046715;28;20033;-60
2022/01/05 12:03:59;;;;;;;12.32;3.88;;;13.60;99.90;;;;;;5048022;28;20033;-60
2022/01/05 12:06:27;;;;;;;13.30;2.88;;;13.30;99.90;;;;;;5047026;28;20487;-60
2022/01/05 12:08:58;;;;;;;10.45;2.90;;;13.60;99.90;;;;;;5046533;28;20118;-61
2022/01/05 12:11:43;;;;;;;11.85;3.90;;;12.30;99.90;;;;;;5046208;28;20025;-61
2022/01/05 12:14:31;;;;;;;13.90;3.88;;;12.40;99.90;;;;;;5047768;28;20154;-61
2022/01/05 12:17:02;;;;;;;9.20;2.92;;;12.00;99.90;;;;;;5032763;28;20018;-60
2022/01/05 12:19:40;;;;;;;11.95;3.95;;;12.80;99.90;;;;;;5049354;28;20032;-61
2022/01/05 12:22:15;;;;;;;13.15;3.33;;;14.70;99.90;;;;;;5050645;28;20040;-61
2022/01/05 12:24:53;;;;;;;10.43;2.67;;;12.80;99.90;;;;;;5048255;28;20045;-60
2022/01/05 12:27:21;;;;;;;11.75;2.50;;;11.80;99.90;;;;;;5064905;28;20139;-60
2022/01/05 12:29:48;;;;;;;14.07;2.75;;;11.30;99.90;;;;;;5067763;28;20028;-60
2022/01/05 12:32:35;;;;;;;10.52;2.55;;;11.80;99.90;;;;;;5068479;28;20036;-61
2022/01/05 12:35:06;;;;;;;10.48;2.58;;;10.30;99.90;;;;;;5059117;28;20446;-61
2022/01/05 12:37:49;;;;;;;12.25;2.63;;;11.00;99.90;;;;;;5070747;28;20028;-60
2022/01/05 12:40:47;;;;;;;8.52;2.97;;;10.70;99.90;;;;;;5069184;28;20033;-60
2022/01/05 12:43:13;;;;;;;9.82;2.45;;;11.70;99.90;;;;;;5051035;28;20503;-60
2022/01/05 12:45:58;;;;;;;12.48;2.95;;;11.00;99.90;;;;;;5044866;28;20500;-60
2022/01/05 12:48:33;;;;;;;11.45;3.17;;;10.80;99.90;;;;;;5044670;28;20036;-59
2022/01/05 12:51:14;;;;;;;8.50;2.92;;;11.00;99.90;;;;;;5044325;28;20029;-60